Time;durP1;ratioP1;P1;durP2;ratioP2;P2;SDS_P1;SDS_P2;PMS_P1;PMS_P2;Temp;Humidity;BMP_temperature;BMP_pressure;BME280_temperature;BME280_humidity;BME280_pressure;Samples;Min_cycle;Max_cycle;Signal;HPM_P1;HPM_P2
2022/06/15 00:01:29;;;;;;;8.63;5.00;;;13.60;99.90;;;;;;5173472;22;20241;-55
2022/06/15 00:04:02;;;;;;;14.43;5.33;;;13.60;99.90;;;;;;5143536;28;20563;-54
2022/06/15 00:06:38;;;;;;;6.17;4.73;;;13.60;99.90;;;;;;5143517;28;20657;-53
2022/06/15 00:09:10;;;;;;;7.23;4.90;;;13.60;99.90;;;;;;5143147;28;20440;-54
2022/06/15 00:11:43;;;;;;;6.90;4.53;;;13.50;99.90;;;;;;5144911;28;20521;-54
2022/06/15 00:14:17;;;;;;;4.70;3.87;;;13.50;99.90;;;;;;5140082;28;20470;-48
2022/06/15 00:16:48;;;;;;;9.20;5.07;;;13.50;99.90;;;;;;5144811;28;20881;-54
2022/06/15 00:19:19;;;;;;;6.27;4.90;;;13.40;99.90;;;;;;5143825;28;20444;-54
2022/06/15 00:21:51;;;;;;;10.47;5.30;;;13.40;99.90;;;;;;5144748;28;20213;-53
2022/06/15 00:24:22;;;;;;;17.10;5.50;;;13.40;99.90;;;;;;5172637;28;20519;-54
2022/06/15 00:26:52;;;;;;;5.10;4.27;;;13.40;99.90;;;;;;5145059;28;20637;-54
2022/06/15 00:29:23;;;;;;;12.60;5.23;;;13.40;99.90;;;;;;5142894;28;20177;-54
2022/06/15 00:31:53;;;;;;;7.97;5.13;;;13.40;99.90;;;;;;5176906;28;20284;-50
2022/06/15 00:34:24;;;;;;;9.37;3.77;;;13.40;99.90;;;;;;5159355;28;20173;-54
2022/06/15 00:36:54;;;;;;;16.67;4.60;;;13.40;99.90;;;;;;5142553;28;20175;-54
2022/06/15 00:39:25;;;;;;;9.67;5.07;;;13.40;99.90;;;;;;5143858;28;20366;-52
2022/06/15 00:41:56;;;;;;;7.07;4.50;;;13.40;99.90;;;;;;5158866;28;20205;-55
2022/06/15 00:44:32;;;;;;;7.80;4.73;;;13.30;99.90;;;;;;5176222;28;20265;-53
2022/06/15 00:47:19;;;;;;;6.17;4.47;;;13.40;99.90;;;;;;5159970;28;20548;-55
2022/06/15 00:50:03;;;;;;;16.87;4.47;;;13.40;99.90;;;;;;5174675;28;20452;-54
2022/06/15 00:52:41;;;;;;;10.53;5.10;;;13.30;99.90;;;;;;5142940;28;20425;-52
2022/06/15 00:55:21;;;;;;;4.50;4.13;;;13.30;99.90;;;;;;5143500;28;20544;-53
2022/06/15 00:57:52;;;;;;;6.90;4.00;;;13.30;99.90;;;;;;5142478;28;21033;-54
2022/06/15 01:00:26;;;;;;;4.57;3.90;;;13.20;99.90;;;;;;5143964;28;20476;-52
2022/06/15 01:02:57;;;;;;;4.80;4.40;;;13.20;99.90;;;;;;5172554;28;20441;-53
2022/06/15 01:05:39;;;;;;;13.83;6.00;;;13.20;99.90;;;;;;5138827;28;20477;-53
2022/06/15 01:08:22;;;;;;;6.10;3.90;;;13.20;99.90;;;;;;5144570;28;20178;-55
2022/06/15 01:11:12;;;;;;;9.03;4.27;;;13.20;99.90;;;;;;5144820;28;20456;-53
2022/06/15 01:14:04;;;;;;;4.40;4.00;;;13.20;99.90;;;;;;5143295;28;20548;-54
2022/06/15 01:16:41;;;;;;;8.27;4.30;;;13.20;99.90;;;;;;5145645;28;20425;-52
2022/06/15 01:19:51;;;;;;;7.20;4.50;;;13.10;99.90;;;;;;5138655;28;20472;-54
2022/06/15 01:22:21;;;;;;;7.90;4.43;;;13.20;99.90;;;;;;5174970;28;21024;-54
2022/06/15 01:25:04;;;;;;;7.33;4.30;;;13.10;99.90;;;;;;5158542;28;20440;-52
2022/06/15 01:27:57;;;;;;;7.40;4.20;;;13.10;99.90;;;;;;5140125;28;20188;-52
2022/06/15 01:30:34;;;;;;;4.10;3.77;;;13.00;99.90;;;;;;5142452;28;20492;-54
2022/06/15 01:33:15;;;;;;;4.57;3.30;;;13.00;99.90;;;;;;5139402;28;20429;-54
2022/06/15 01:35:52;;;;;;;8.50;3.40;;;13.00;99.90;;;;;;5140572;28;20455;-55
2022/06/15 01:38:52;;;;;;;5.50;3.17;;;12.90;99.90;;;;;;5142982;28;20531;-54
2022/06/15 01:41:49;;;;;;;7.73;3.90;;;12.90;99.90;;;;;;5135714;28;20473;-54
2022/06/15 01:44:32;;;;;;;5.13;3.73;;;12.90;99.90;;;;;;5137706;28;21031;-53
2022/06/15 01:47:11;;;;;;;6.77;4.43;;;12.90;99.90;;;;;;5142980;28;20468;-55
2022/06/15 01:50:19;;;;;;;3.30;3.00;;;12.90;99.90;;;;;;5142761;28;20552;-54
2022/06/15 01:53:08;;;;;;;10.87;4.53;;;12.80;99.90;;;;;;5129298;28;20441;-52
2022/06/15 01:55:47;;;;;;;4.50;3.47;;;12.90;99.90;;;;;;5132859;28;20440;-53
2022/06/15 01:58:22;;;;;;;4.80;3.70;;;12.90;99.90;;;;;;5142023;28;20511;-53
2022/06/15 02:01:02;;;;;;;3.00;2.80;;;12.80;99.90;;;;;;5138221;28;20504;-53
2022/06/15 02:03:50;;;;;;;6.87;3.93;;;12.80;99.90;;;;;;5141588;28;20928;-54
2022/06/15 02:06:27;;;;;;;6.80;3.40;;;12.80;99.90;;;;;;5137890;28;20719;-53
2022/06/15 02:09:40;;;;;;;8.37;3.97;;;12.80;99.90;;;;;;5143437;28;20441;-53
2022/06/15 02:12:14;;;;;;;8.13;3.80;;;12.80;99.90;;;;;;5139385;28;20444;-53
2022/06/15 02:14:50;;;;;;;7.60;3.30;;;12.80;99.90;;;;;;5172649;28;20433;-53
2022/06/15 02:17:29;;;;;;;6.60;3.30;;;12.70;99.90;;;;;;5172453;28;20448;-52
2022/06/15 02:20:08;;;;;;;4.67;3.50;;;12.70;99.90;;;;;;5139600;28;20479;-55
2022/06/15 02:22:42;;;;;;;4.70;3.57;;;12.70;99.90;;;;;;5147465;28;20544;-53
2022/06/15 02:25:17;;;;;;;3.67;3.10;;;12.70;99.90;;;;;;5142506;28;20909;-53
2022/06/15 02:27:50;;;;;;;4.37;3.20;;;12.60;99.90;;;;;;5137732;28;20734;-53
2022/06/15 02:30:24;;;;;;;3.40;3.10;;;12.60;99.90;;;;;;5147064;28;20457;-54
2022/06/15 02:32:55;;;;;;;4.13;3.17;;;12.60;99.90;;;;;;5141274;28;20524;-53
2022/06/15 02:35:26;;;;;;;6.80;3.33;;;12.60;99.90;;;;;;5140430;28;20436;-53
2022/06/15 02:37:56;;;;;;;3.73;3.13;;;12.60;99.90;;;;;;5137839;28;20437;-53
2022/06/15 02:40:27;;;;;;;6.27;3.40;;;12.60;99.90;;;;;;5143312;28;20213;-53
2022/06/15 02:43:01;;;;;;;4.03;3.50;;;12.60;99.90;;;;;;5138888;28;20281;-49
2022/06/15 02:45:36;;;;;;;5.53;3.37;;;12.50;99.90;;;;;;5142211;28;20192;-52
2022/06/15 02:48:09;;;;;;;4.50;2.77;;;12.50;99.90;;;;;;5139803;28;20448;-54
2022/06/15 02:50:48;;;;;;;8.27;4.17;;;12.50;99.90;;;;;;5171572;28;20456;-54
2022/06/15 02:53:23;;;;;;;3.27;3.07;;;12.60;99.90;;;;;;5156855;28;20794;-53
2022/06/15 02:55:56;;;;;;;6.50;3.03;;;12.50;99.90;;;;;;5153485;28;20433;-54
2022/06/15 02:58:34;;;;;;;4.70;3.23;;;12.50;99.90;;;;;;5140781;28;20441;-54
2022/06/15 03:01:05;;;;;;;4.67;3.90;;;12.60;99.90;;;;;;5139078;28;20825;-52
2022/06/15 03:03:37;;;;;;;4.10;3.60;;;12.50;99.90;;;;;;5156009;28;20432;-53
2022/06/15 03:06:09;;;;;;;5.70;4.13;;;12.50;99.90;;;;;;5153940;28;20182;-53
2022/06/15 03:08:40;;;;;;;3.40;3.00;;;12.50;99.90;;;;;;5139899;28;20464;-53
2022/06/15 03:11:12;;;;;;;10.73;4.13;;;12.50;99.90;;;;;;5144552;28;20464;-54
2022/06/15 03:13:42;;;;;;;7.03;3.60;;;12.50;99.90;;;;;;5146221;28;20491;-56
2022/06/15 03:16:13;;;;;;;3.90;3.53;;;12.40;99.90;;;;;;5162163;28;20963;-54
2022/06/15 03:18:44;;;;;;;3.50;3.20;;;12.50;99.90;;;;;;5144245;28;20347;-51
2022/06/15 03:21:15;;;;;;;10.87;4.30;;;12.50;99.90;;;;;;5138103;28;20334;-53
2022/06/15 03:23:45;;;;;;;4.37;3.47;;;12.60;99.90;;;;;;5143144;28;20623;-53
2022/06/15 03:26:16;;;;;;;5.40;4.37;;;12.60;99.90;;;;;;5137648;28;20276;-54
2022/06/15 03:28:46;;;;;;;5.70;4.27;;;12.60;99.90;;;;;;5145470;28;20252;-50
2022/06/15 03:31:17;;;;;;;8.17;4.33;;;12.70;99.90;;;;;;5177644;28;20283;-54
2022/06/15 03:33:48;;;;;;;9.67;4.17;;;12.70;99.90;;;;;;5144059;28;20194;-52
2022/06/15 03:36:19;;;;;;;6.83;3.83;;;12.70;99.90;;;;;;5144793;28;20192;-54
2022/06/15 03:38:51;;;;;;;6.97;4.20;;;12.80;99.90;;;;;;5142916;28;20193;-53
2022/06/15 03:41:21;;;;;;;10.50;4.30;;;12.80;99.90;;;;;;5144664;28;20516;-53
2022/06/15 03:43:52;;;;;;;4.40;4.00;;;12.90;99.90;;;;;;5145203;28;20531;-51
2022/06/15 03:46:23;;;;;;;3.63;3.30;;;13.00;99.90;;;;;;5145354;28;20653;-53
2022/06/15 03:48:54;;;;;;;4.57;4.10;;;13.00;99.90;;;;;;5141252;28;20269;-54
2022/06/15 03:51:24;;;;;;;6.27;4.33;;;13.10;99.90;;;;;;5148466;28;20576;-53
2022/06/15 03:53:55;;;;;;;4.50;4.10;;;13.20;99.90;;;;;;5138681;28;20190;-54
2022/06/15 03:56:47;;;;;;;11.23;3.70;;;13.40;99.90;;;;;;5140373;28;20588;-54
2022/06/15 03:59:18;;;;;;;8.23;4.27;;;13.50;99.90;;;;;;5174698;28;20273;-54
2022/06/15 04:01:48;;;;;;;6.40;4.27;;;13.50;99.90;;;;;;5169104;28;20624;-52
2022/06/15 04:04:19;;;;;;;5.00;3.37;;;13.60;99.90;;;;;;5141238;28;20190;-54
2022/06/15 04:06:50;;;;;;;4.27;3.93;;;13.60;99.90;;;;;;5155547;28;20532;-53
2022/06/15 04:09:21;;;;;;;13.60;5.23;;;13.70;99.90;;;;;;5137686;28;20192;-53
2022/06/15 04:11:58;;;;;;;8.23;4.70;;;13.70;99.90;;;;;;5169637;28;20488;-51
2022/06/15 04:14:30;;;;;;;9.63;4.80;;;13.80;99.90;;;;;;5141336;28;20455;-53
2022/06/15 04:17:01;;;;;;;4.77;4.20;;;13.90;99.90;;;;;;5176885;28;20497;-54
2022/06/15 04:19:33;;;;;;;12.30;4.33;;;14.00;99.90;;;;;;5144946;28;20453;-53
2022/06/15 04:22:04;;;;;;;5.77;3.73;;;14.20;99.90;;;;;;5139744;28;20441;-54
2022/06/15 04:24:34;;;;;;;9.83;3.80;;;14.40;99.90;;;;;;5144305;28;20467;-53
2022/06/15 04:27:05;;;;;;;7.50;4.10;;;14.60;99.90;;;;;;5140745;28;20213;-53
2022/06/15 04:29:35;;;;;;;9.63;3.37;;;14.80;99.90;;;;;;5173371;28;20192;-48
2022/06/15 04:32:06;;;;;;;8.17;3.53;;;15.20;99.90;;;;;;5138791;28;20212;-54
2022/06/15 04:34:37;;;;;;;6.63;3.40;;;15.40;99.90;;;;;;5138682;28;20208;-54
2022/06/15 04:37:08;;;;;;;3.27;2.60;;;15.70;99.90;;;;;;5175910;28;20566;-55
2022/06/15 04:39:38;;;;;;;8.43;3.37;;;16.00;99.90;;;;;;5175659;28;20222;-54
2022/06/15 04:42:09;;;;;;;4.60;3.00;;;16.50;99.70;;;;;;5169272;28;20649;-55
2022/06/15 04:44:39;;;;;;;4.47;3.17;;;17.20;97.00;;;;;;5142468;28;20305;-53
2022/06/15 04:47:10;;;;;;;6.20;3.50;;;18.30;93.10;;;;;;5144304;28;20200;-54
2022/06/15 04:49:41;;;;;;;2.77;2.63;;;19.30;85.10;;;;;;5142269;28;20546;-55
2022/06/15 04:52:11;;;;;;;6.10;3.07;;;20.10;73.60;;;;;;5139153;28;20212;-54
2022/06/15 04:54:42;;;;;;;7.30;3.70;;;20.80;67.70;;;;;;5157635;28;20234;-53
2022/06/15 04:57:12;;;;;;;4.10;2.80;;;21.40;64.00;;;;;;5139580;28;20288;-53
2022/06/15 04:59:43;;;;;;;10.70;3.73;;;21.60;59.90;;;;;;5172464;28;20253;-54
2022/06/15 05:02:14;;;;;;;2.53;2.33;;;21.70;58.40;;;;;;5132238;28;20186;-54
2022/06/15 05:04:45;;;;;;;11.73;2.90;;;21.70;57.40;;;;;;5136020;28;20192;-54
2022/06/15 05:07:15;;;;;;;8.93;3.30;;;22.10;56.60;;;;;;5141492;28;20807;-54
2022/06/15 05:09:47;;;;;;;5.80;3.07;;;22.20;54.20;;;;;;5140184;28;20193;-53
2022/06/15 05:12:18;;;;;;;4.77;2.53;;;22.40;52.40;;;;;;5170184;28;20186;-55
2022/06/15 05:14:49;;;;;;;2.60;2.40;;;22.10;51.70;;;;;;5141426;28;20817;-53
2022/06/15 05:17:22;;;;;;;4.13;2.90;;;22.00;52.20;;;;;;5139600;28;20455;-55
2022/06/15 05:19:52;;;;;;;2.47;2.30;;;22.10;52.80;;;;;;5137051;28;20213;-54
2022/06/15 05:22:23;;;;;;;2.43;2.10;;;22.70;50.60;;;;;;5156591;28;20603;-54
2022/06/15 05:24:54;;;;;;;11.77;2.83;;;23.40;49.70;;;;;;5146356;28;20639;-54
2022/06/15 05:27:24;;;;;;;3.23;2.37;;;24.30;47.90;;;;;;5138620;28;21194;-54
2022/06/15 05:29:55;;;;;;;3.83;2.47;;;24.10;46.20;;;;;;5142637;28;20202;-54
2022/06/15 05:32:26;;;;;;;4.57;3.10;;;23.50;47.00;;;;;;5141042;28;20182;-51
2022/06/15 05:34:56;;;;;;;4.33;3.00;;;23.00;47.50;;;;;;5169738;28;20186;-51
2022/06/15 05:37:29;;;;;;;3.73;2.50;;;22.60;49.20;;;;;;5140337;28;20272;-54
2022/06/15 05:40:00;;;;;;;5.50;2.07;;;22.20;49.50;;;;;;5155425;28;20285;-55
2022/06/15 05:42:32;;;;;;;6.00;2.37;;;21.90;48.90;;;;;;5169154;28;20449;-54
2022/06/15 05:45:03;;;;;;;4.53;2.07;;;21.70;50.10;;;;;;5139427;28;20937;-53
2022/06/15 05:47:33;;;;;;;5.20;2.50;;;21.60;49.90;;;;;;5136256;28;20433;-53
2022/06/15 05:50:05;;;;;;;2.00;1.73;;;21.80;49.60;;;;;;5153314;28;20532;-53
2022/06/15 05:52:36;;;;;;;5.93;2.20;;;22.20;48.90;;;;;;5137336;28;20664;-55
2022/06/15 05:55:07;;;;;;;4.80;1.80;;;22.90;48.20;;;;;;5169264;28;20445;-54
2022/06/15 05:57:38;;;;;;;4.07;1.93;;;23.90;45.70;;;;;;5144053;28;20520;-55
2022/06/15 06:00:11;;;;;;;8.00;2.03;;;25.20;43.10;;;;;;5139289;28;20488;-51
2022/06/15 06:02:42;;;;;;;3.33;2.07;;;25.90;41.20;;;;;;5171795;28;20287;-51
2022/06/15 06:05:13;;;;;;;4.27;1.50;;;26.60;39.60;;;;;;5172173;28;21075;-52
2022/06/15 06:07:44;;;;;;;2.10;1.80;;;27.40;38.70;;;;;;5153861;28;20689;-50
2022/06/15 06:10:15;;;;;;;2.97;1.87;;;28.20;37.20;;;;;;5137799;28;20220;-52
2022/06/15 06:12:45;;;;;;;3.97;1.73;;;28.70;36.10;;;;;;5132673;28;20437;-52
2022/06/15 06:15:16;;;;;;;7.20;1.70;;;28.70;34.80;;;;;;5151932;28;20489;-51
2022/06/15 06:17:47;;;;;;;3.00;1.80;;;29.50;33.30;;;;;;5137441;28;20212;-51
2022/06/15 06:20:17;;;;;;;5.80;1.50;;;31.20;31.10;;;;;;5140612;28;20218;-51
2022/06/15 06:22:48;;;;;;;6.10;1.37;;;33.00;29.20;;;;;;5142113;28;20177;-51
2022/06/15 06:25:18;;;;;;;1.33;1.00;;;34.70;27.50;;;;;;5176593;28;20181;-52
2022/06/15 06:27:49;;;;;;;6.23;1.83;;;35.30;26.00;;;;;;5130514;28;20289;-52
2022/06/15 06:30:21;;;;;;;8.05;1.35;;;36.30;25.50;;;;;;5139953;28;20204;-51
2022/06/15 06:32:52;;;;;;;1.95;1.20;;;37.10;24.50;;;;;;5143541;28;20181;-53
2022/06/15 06:35:23;;;;;;;1.33;1.07;;;37.40;23.40;;;;;;5143318;28;20238;-51
2022/06/15 06:37:55;;;;;;;3.50;1.17;;;36.30;23.10;;;;;;5146395;28;20264;-51
2022/06/15 06:40:26;;;;;;;2.10;1.00;;;35.40;24.10;;;;;;5148048;28;20549;-52
2022/06/15 06:42:56;;;;;;;1.53;1.27;;;34.30;24.90;;;;;;5142067;28;20561;-52
2022/06/15 06:45:27;;;;;;;1.63;1.50;;;34.30;24.70;;;;;;5159767;28;20453;-50
2022/06/15 06:48:00;;;;;;;3.57;0.97;;;32.60;25.30;;;;;;5146701;28;20212;-50
2022/06/15 06:50:30;;;;;;;2.10;1.27;;;30.80;27.00;;;;;;5177793;28;20205;-51
2022/06/15 06:53:01;;;;;;;5.43;1.47;;;29.90;28.60;;;;;;5172446;28;20448;-52
2022/06/15 06:55:32;;;;;;;2.53;1.30;;;30.00;28.80;;;;;;5144525;28;20284;-51
2022/06/15 06:58:04;;;;;;;1.43;0.80;;;30.40;28.30;;;;;;5152046;28;20547;-52
2022/06/15 07:00:36;;;;;;;6.63;1.70;;;31.00;28.00;;;;;;5161117;28;20216;-54
2022/06/15 07:03:06;;;;;;;4.97;1.90;;;31.10;28.10;;;;;;5158886;28;20476;-51
2022/06/15 07:05:38;;;;;;;5.60;0.93;;;31.30;27.50;;;;;;5157290;28;20991;-52
2022/06/15 07:08:12;;;;;;;4.60;1.40;;;31.40;27.00;;;;;;5141514;28;20204;-52
2022/06/15 07:10:43;;;;;;;9.63;1.23;;;30.80;27.50;;;;;;5145085;28;20499;-52
2022/06/15 07:13:14;;;;;;;5.60;1.70;;;30.30;28.40;;;;;;5146220;28;21001;-53
2022/06/15 07:15:44;;;;;;;1.53;0.97;;;30.30;28.00;;;;;;5163254;28;20531;-55
2022/06/15 07:18:15;;;;;;;9.53;2.10;;;30.00;28.50;;;;;;5144921;28;20193;-50
2022/06/15 07:20:46;;;;;;;6.63;1.47;;;28.80;29.60;;;;;;5144109;28;20758;-51
2022/06/15 07:23:16;;;;;;;2.40;2.03;;;28.20;30.30;;;;;;5166809;28;20177;-51
2022/06/15 07:25:47;;;;;;;1.03;1.03;;;27.90;30.90;;;;;;5145561;28;20206;-51
2022/06/15 07:28:17;;;;;;;2.40;1.17;;;26.90;31.50;;;;;;5161480;28;20194;-51
2022/06/15 07:30:48;;;;;;;2.37;1.27;;;26.30;32.80;;;;;;5158845;28;20700;-53
2022/06/15 07:33:19;;;;;;;1.40;1.30;;;26.10;33.30;;;;;;5146817;28;20596;-51
2022/06/15 07:35:50;;;;;;;3.70;1.60;;;27.10;32.60;;;;;;5145689;28;20572;-50
2022/06/15 07:38:20;;;;;;;16.87;3.50;;;29.10;30.80;;;;;;5145489;28;20539;-51
2022/06/15 07:40:51;;;;;;;4.53;1.23;;;31.40;28.00;;;;;;5145346;28;20618;-51
2022/06/15 07:43:21;;;;;;;2.83;1.70;;;32.70;25.40;;;;;;5158907;28;20189;-52
2022/06/15 07:45:52;;;;;;;1.13;1.00;;;33.80;25.10;;;;;;5145895;28;20228;-51
2022/06/15 07:51:34;;;;;;;2.57;1.73;;;33.90;24.50;;;;;;5143864;28;20361;-52
2022/06/15 07:54:11;;;;;;;4.50;1.20;;;34.70;24.10;;;;;;5142637;28;20447;-52
2022/06/15 07:56:42;;;;;;;3.33;1.13;;;34.30;24.20;;;;;;5146453;28;20575;-51
2022/06/15 07:59:14;;;;;;;2.67;1.03;;;34.70;24.30;;;;;;5147505;28;20472;-51
2022/06/15 08:01:45;;;;;;;7.17;1.57;;;34.80;23.70;;;;;;5132723;28;20212;-51
2022/06/15 08:04:17;;;;;;;1.20;1.10;;;34.40;23.30;;;;;;5149736;28;20436;-52
2022/06/15 08:06:48;;;;;;;3.60;1.23;;;33.40;23.80;;;;;;5167737;28;20436;-50
2022/06/15 08:09:19;;;;;;;1.37;1.27;;;33.40;24.40;;;;;;5138915;28;20869;-48
2022/06/15 08:14:45;;;;;;;1.63;1.37;;;32.60;25.10;;;;;;5138340;28;20212;-50
2022/06/15 08:17:20;;;;;;;1.80;0.90;;;33.00;24.70;;;;;;5138769;28;20793;-48
2022/06/15 08:20:00;;;;;;;2.77;1.20;;;32.80;25.20;;;;;;5136979;28;20447;-51
2022/06/15 08:22:31;;;;;;;5.43;1.03;;;33.70;24.80;;;;;;5172447;28;20433;-50
2022/06/15 08:25:03;;;;;;;9.07;1.87;;;34.10;24.00;;;;;;5145087;28;20189;-50
2022/06/15 08:27:36;;;;;;;3.50;1.43;;;34.10;23.80;;;;;;5155265;28;20517;-52
2022/06/15 08:30:10;;;;;;;3.30;1.33;;;33.40;24.40;;;;;;5135741;28;20468;-51
2022/06/15 08:32:41;;;;;;;2.30;1.03;;;32.40;24.90;;;;;;5156522;28;20845;-50
2022/06/15 08:35:13;;;;;;;1.70;1.40;;;32.40;25.40;;;;;;5136677;28;21126;-52
2022/06/15 08:37:44;;;;;;;4.63;1.33;;;33.40;24.70;;;;;;5141817;28;20443;-50
2022/06/15 08:40:16;;;;;;;3.73;1.20;;;34.00;23.80;;;;;;5161063;28;20554;-51
2022/06/15 08:43:31;;;;;;;3.03;1.43;;;33.80;23.90;;;;;;5171436;28;20185;-50
2022/06/15 08:46:40;;;;;;;9.87;1.30;;;32.20;24.90;;;;;;5153896;28;20539;-51
2022/06/15 08:49:22;;;;;;;3.10;1.60;;;31.30;26.00;;;;;;5140906;28;20483;-52
2022/06/15 08:51:58;;;;;;;10.93;1.10;;;30.90;26.50;;;;;;5139848;28;20690;-51
2022/06/15 08:54:38;;;;;;;4.57;1.70;;;29.80;27.80;;;;;;5142929;28;20476;-50
2022/06/15 08:57:31;;;;;;;3.90;2.27;;;28.20;29.00;;;;;;5141686;28;20877;-52
2022/06/15 09:00:14;;;;;;;2.87;1.40;;;26.20;31.90;;;;;;5136408;28;20484;-50
2022/06/15 09:02:48;;;;;;;3.90;1.33;;;25.00;33.80;;;;;;5153017;28;20508;-52
2022/06/15 09:05:42;;;;;;;2.17;1.30;;;24.60;35.30;;;;;;5133050;28;20949;-49
2022/06/15 09:08:37;;;;;;;4.87;1.90;;;24.50;35.60;;;;;;5153064;28;20446;-50
2022/06/15 09:11:25;;;;;;;1.60;1.47;;;24.70;35.90;;;;;;5143019;28;21039;-50
2022/06/15 09:14:03;;;;;;;3.00;1.50;;;24.70;35.70;;;;;;5145032;28;20451;-48
2022/06/15 09:16:39;;;;;;;3.43;1.47;;;24.50;35.10;;;;;;5143570;28;20512;-51
2022/06/15 09:19:14;;;;;;;3.40;1.57;;;24.30;35.80;;;;;;5143281;28;20452;-52
2022/06/15 09:22:16;;;;;;;2.63;1.70;;;24.30;36.00;;;;;;5136961;28;20987;-49
2022/06/15 09:24:51;;;;;;;7.90;1.50;;;24.30;36.00;;;;;;5142113;28;20468;-50
2022/06/15 09:27:32;;;;;;;4.40;1.50;;;24.20;35.70;;;;;;5153492;28;20441;-51
2022/06/15 09:30:11;;;;;;;1.17;1.13;;;24.00;35.90;;;;;;5143498;28;20453;-53
2022/06/15 09:32:46;;;;;;;1.83;1.43;;;23.50;36.30;;;;;;5147170;28;20520;-51
2022/06/15 09:35:32;;;;;;;2.93;1.17;;;23.30;37.50;;;;;;5138224;28;20570;-52
2022/06/15 09:38:06;;;;;;;6.50;1.80;;;23.00;38.20;;;;;;5137437;28;20445;-51
2022/06/15 09:40:41;;;;;;;1.60;1.50;;;22.80;38.40;;;;;;5142650;28;20542;-50
2022/06/15 09:43:43;;;;;;;5.00;1.73;;;22.50;38.70;;;;;;5173916;28;20480;-52
2022/06/15 09:46:33;;;;;;;3.10;1.77;;;22.40;39.10;;;;;;5135571;28;20448;-51
2022/06/15 09:49:09;;;;;;;6.13;1.50;;;22.30;39.40;;;;;;5141865;28;20552;-51
2022/06/15 09:52:05;;;;;;;1.50;1.40;;;22.30;39.80;;;;;;5142794;28;20472;-51
2022/06/15 09:54:54;;;;;;;7.07;1.83;;;22.40;39.40;;;;;;5156583;28;20507;-50
2022/06/15 09:57:26;;;;;;;5.30;2.03;;;22.50;39.40;;;;;;5171704;28;20754;-50
2022/06/15 09:59:57;;;;;;;4.30;2.07;;;22.80;39.60;;;;;;5141965;28;20479;-51
2022/06/15 10:02:36;;;;;;;5.97;1.90;;;23.00;39.00;;;;;;5146288;28;20443;-49
2022/06/15 10:05:21;;;;;;;10.93;1.50;;;23.40;39.00;;;;;;5173219;28;20889;-51
2022/06/15 10:07:53;;;;;;;11.83;1.80;;;23.60;38.30;;;;;;5141207;28;20951;-50
2022/06/15 10:10:46;;;;;;;1.80;1.50;;;23.70;37.50;;;;;;5135897;28;20545;-51
2022/06/15 10:13:17;;;;;;;1.63;1.53;;;23.90;38.30;;;;;;5140659;28;20450;-50
2022/06/15 10:15:52;;;;;;;4.40;1.70;;;24.00;37.10;;;;;;5142495;28;20964;-50
2022/06/15 10:18:42;;;;;;;3.97;1.50;;;23.80;37.00;;;;;;5142790;28;20189;-50
2022/06/15 10:21:13;;;;;;;1.90;1.77;;;23.80;37.70;;;;;;5141815;28;20597;-49
2022/06/15 10:23:46;;;;;;;4.30;2.70;;;23.90;37.60;;;;;;5141089;28;20868;-51
2022/06/15 10:26:44;;;;;;;5.33;2.10;;;23.90;37.60;;;;;;5144245;28;20661;-49
2022/06/15 10:29:14;;;;;;;1.53;1.43;;;23.90;37.80;;;;;;5153082;28;20532;-52
2022/06/15 10:32:08;;;;;;;4.77;1.97;;;23.70;37.40;;;;;;5146356;28;20608;-52
2022/06/15 10:34:54;;;;;;;1.10;1.10;;;23.60;37.90;;;;;;5173926;28;20197;-50
2022/06/15 10:37:50;;;;;;;9.90;1.73;;;23.50;38.50;;;;;;5138721;28;20456;-49
2022/06/15 10:40:33;;;;;;;1.27;1.20;;;23.50;38.20;;;;;;5138555;28;20880;-49
2022/06/15 10:43:13;;;;;;;2.03;1.93;;;23.50;38.30;;;;;;5143869;28;20914;-51
2022/06/15 10:46:00;;;;;;;2.43;1.63;;;23.60;38.80;;;;;;5142695;28;20821;-50
2022/06/15 10:48:36;;;;;;;6.07;1.80;;;23.70;38.20;;;;;;5144441;28;20467;-51
2022/06/15 10:51:11;;;;;;;9.60;1.40;;;23.40;38.30;;;;;;5158649;28;20468;-51
2022/06/15 10:53:51;;;;;;;1.60;1.50;;;23.30;38.60;;;;;;5143269;28;20480;-50
2022/06/15 11:02:38;;;;;;;2.57;1.53;;;23.70;38.70;;;;;;5145620;28;20437;-50
2022/06/15 11:05:19;;;;;;;5.37;1.90;;;23.80;38.80;;;;;;5142663;28;20855;-51
2022/06/15 11:07:59;;;;;;;6.17;1.43;;;23.70;38.10;;;;;;5144737;28;20448;-50
2022/06/15 11:10:39;;;;;;;3.83;1.50;;;23.70;38.70;;;;;;5144441;28;20500;-50
2022/06/15 11:13:29;;;;;;;1.57;1.43;;;23.90;38.10;;;;;;5137454;28;20773;-49
2022/06/15 11:19:24;;;;;;;5.97;2.07;;;24.20;37.70;;;;;;5127688;28;20456;-51
2022/06/15 11:21:56;;;;;;;1.83;1.70;;;24.30;37.20;;;;;;5138601;28;20892;-50
2022/06/15 11:24:48;;;;;;;14.43;4.70;;;24.20;37.10;;;;;;5149080;28;20457;-51
2022/06/15 11:27:28;;;;;;;3.57;1.83;;;24.20;37.50;;;;;;5137152;28;20433;-51
2022/06/15 11:30:26;;;;;;;4.47;1.90;;;24.10;37.40;;;;;;5144662;28;20459;-51
2022/06/15 11:33:17;;;;;;;6.47;1.93;;;24.00;37.50;;;;;;5152548;28;20446;-51
2022/06/15 11:36:01;;;;;;;5.77;2.30;;;24.00;38.20;;;;;;5177972;28;20452;-50
2022/06/15 11:38:52;;;;;;;3.73;1.70;;;23.90;37.60;;;;;;5177589;28;20437;-50
2022/06/15 11:41:29;;;;;;;3.77;2.07;;;23.90;38.10;;;;;;5169170;28;20545;-49
2022/06/15 11:44:06;;;;;;;3.83;2.00;;;23.80;38.30;;;;;;5180837;28;20443;-51
2022/06/15 11:47:01;;;;;;;2.07;1.97;;;23.80;38.30;;;;;;5149766;28;20453;-51
2022/06/15 11:50:01;;;;;;;11.03;2.03;;;23.70;38.20;;;;;;5142433;28;20449;-50
2022/06/15 11:52:31;;;;;;;6.10;2.73;;;23.80;38.30;;;;;;5153383;28;20821;-51
2022/06/15 11:55:20;;;;;;;3.73;1.93;;;23.70;38.00;;;;;;5150600;28;20468;-49
2022/06/15 11:58:17;;;;;;;8.13;2.80;;;23.80;38.30;;;;;;5166787;28;20596;-53
2022/06/15 12:01:12;;;;;;;7.70;2.33;;;23.90;38.30;;;;;;5146833;28;20487;-57
2022/06/15 12:03:43;;;;;;;10.80;2.57;;;24.00;37.80;;;;;;5148652;28;20911;-56
2022/06/15 12:06:36;;;;;;;4.87;1.73;;;23.90;37.50;;;;;;5142559;28;20445;-53
2022/06/15 12:09:26;;;;;;;2.80;2.10;;;23.90;38.00;;;;;;5156302;28;20265;-54
2022/06/15 12:12:40;;;;;;;28.90;16.27;;;23.90;37.80;;;;;;5144023;28;20555;-54
2022/06/15 12:15:38;;;;;;;7.50;3.20;;;23.80;38.10;;;;;;5146199;28;20444;-54
2022/06/15 12:18:17;;;;;;;8.33;2.07;;;23.90;37.80;;;;;;5147155;28;20519;-54
2022/06/15 12:21:14;;;;;;;6.33;2.10;;;24.10;38.00;;;;;;5145295;28;20480;-55
2022/06/15 12:23:56;;;;;;;5.17;2.10;;;24.10;38.10;;;;;;5150073;28;20449;-55
2022/06/15 12:26:36;;;;;;;3.07;1.73;;;23.90;37.90;;;;;;5142752;28;20908;-54
2022/06/15 12:29:09;;;;;;;2.97;1.80;;;23.70;38.50;;;;;;5143917;28;20460;-55
2022/06/15 12:32:23;;;;;;;7.07;2.27;;;23.60;38.20;;;;;;5180411;28;20472;-52
2022/06/15 12:34:54;;;;;;;9.40;2.40;;;23.50;38.10;;;;;;5153755;28;21071;-54
2022/06/15 12:37:55;;;;;;;4.20;2.57;;;23.50;38.30;;;;;;5147834;28;20548;-55
2022/06/15 12:40:33;;;;;;;3.53;2.50;;;23.60;38.20;;;;;;5133043;28;20288;-55
2022/06/15 12:43:25;;;;;;;2.90;2.00;;;23.50;38.10;;;;;;5146839;28;20503;-51
2022/06/15 12:46:16;;;;;;;4.23;2.07;;;23.60;38.60;;;;;;5146760;28;20436;-53
2022/06/15 12:48:54;;;;;;;2.50;2.27;;;23.80;38.50;;;;;;5149536;28;21094;-52
2022/06/15 12:51:43;;;;;;;5.20;1.80;;;24.00;38.20;;;;;;5133228;28;20468;-49
2022/06/15 12:54:29;;;;;;;3.50;1.73;;;24.20;37.80;;;;;;5143510;28;20499;-52
2022/06/15 12:57:21;;;;;;;10.77;2.80;;;24.30;37.90;;;;;;5147755;28;20459;-50
2022/06/15 13:00:17;;;;;;;4.77;2.50;;;24.20;37.20;;;;;;5150298;28;20911;-50
2022/06/15 13:02:56;;;;;;;7.83;2.23;;;23.90;37.70;;;;;;5150235;28;20437;-48
2022/06/15 13:05:38;;;;;;;1.83;1.70;;;23.90;38.10;;;;;;5143436;28;20449;-50
2022/06/15 13:08:11;;;;;;;1.40;1.30;;;23.90;37.90;;;;;;5140470;28;20882;-50
2022/06/15 13:10:54;;;;;;;3.03;2.00;;;23.90;37.90;;;;;;5145797;28;20484;-48
2022/06/15 13:13:32;;;;;;;4.90;2.23;;;24.00;38.10;;;;;;5146864;28;20449;-50
2022/06/15 13:16:10;;;;;;;2.93;2.17;;;24.10;38.10;;;;;;5148454;28;20451;-47
2022/06/15 13:18:51;;;;;;;2.30;2.00;;;24.10;37.90;;;;;;5139600;28;20436;-47
2022/06/15 13:21:28;;;;;;;7.50;2.07;;;24.10;37.70;;;;;;5148519;28;20475;-46
2022/06/15 13:24:07;;;;;;;2.70;1.90;;;24.10;37.90;;;;;;5144636;28;20473;-51
2022/06/15 13:26:38;;;;;;;2.90;2.20;;;24.10;37.60;;;;;;5142167;28;20445;-49
2022/06/15 13:29:11;;;;;;;12.57;2.17;;;24.20;37.20;;;;;;5143219;28;20452;-50
2022/06/15 13:31:50;;;;;;;3.23;2.30;;;24.10;37.50;;;;;;5157784;28;20244;-48
2022/06/15 13:34:35;;;;;;;1.93;1.60;;;24.10;37.60;;;;;;5131457;28;20444;-51
2022/06/15 13:37:15;;;;;;;2.40;2.20;;;24.10;37.80;;;;;;5148888;28;20441;-50
2022/06/15 13:39:51;;;;;;;3.33;1.80;;;24.20;37.80;;;;;;5145015;28;20425;-50
2022/06/15 13:42:26;;;;;;;7.83;2.50;;;24.10;37.10;;;;;;5147169;28;20789;-50
2022/06/15 13:45:05;;;;;;;5.23;2.43;;;24.00;37.50;;;;;;5142138;28;20440;-49
2022/06/15 13:47:51;;;;;;;4.57;2.30;;;24.00;37.70;;;;;;5141137;28;20512;-50
2022/06/15 13:50:44;;;;;;;7.80;3.10;;;24.10;37.10;;;;;;5140376;28;20468;-51
2022/06/15 13:53:39;;;;;;;3.70;1.80;;;24.10;37.40;;;;;;5139185;28;20456;-50